Time;durP1;ratioP1;P1;durP2;ratioP2;P2;SDS_P1;SDS_P2;PMS_P1;PMS_P2;Temp;Humidity;BMP_temperature;BMP_pressure;BME280_temperature;BME280_humidity;BME280_pressure;Samples;Min_cycle;Max_cycle;Signal;HPM_P1;HPM_P2
2022/10/19 00:01:15;;;;;;;28.90;9.23;;;;;;;;;;5034681;28;20040;-61
2022/10/19 00:03:42;;;;;;;21.23;9.32;;;;;;;;;;5034800;28;20048;-61
2022/10/19 00:06:24;;;;;;;21.77;9.27;;;;;;;;;;5034495;28;20033;-61
2022/10/19 00:08:54;;;;;;;24.08;8.77;;;;;;;;;;5034432;28;20041;-62
2022/10/19 00:11:22;;;;;;;16.92;8.35;;;;;;;;;;5034324;28;20119;-61
2022/10/19 00:13:48;;;;;;;22.30;9.52;;;;;;;;;;5034233;28;20377;-61
2022/10/19 00:16:15;;;;;;;21.20;8.77;;;;;;;;;;5034376;28;20025;-61
2022/10/19 00:18:42;;;;;;;18.08;9.38;;;;;;;;;;5034214;28;20049;-61
2022/10/19 00:21:09;;;;;;;24.50;9.38;;;;;;;;;;5034384;28;20033;-62
2022/10/19 00:23:36;;;;;;;18.65;9.05;;;;;;;;;;5033959;28;20025;-61
2022/10/19 00:26:02;;;;;;;22.88;9.45;;;;;;;;;;5034445;28;20116;-62
2022/10/19 00:28:28;;;;;;;18.85;9.35;;;;;;;;;;5033399;28;20413;-61
2022/10/19 00:30:54;;;;;;;18.25;8.77;;;;;;;;;;5034380;28;20034;-61
2022/10/19 00:33:21;;;;;;;26.48;10.02;;;;;;;;;;5033838;28;20032;-61
2022/10/19 00:35:50;;;;;;;16.38;9.18;;;;;;;;;;5034167;28;20100;-61
2022/10/19 00:38:17;;;;;;;21.15;9.10;;;;;;;;;;5033610;28;20444;-61
2022/10/19 00:40:43;;;;;;;22.17;8.90;;;;;;;;;;5032840;28;20116;-62
2022/10/19 00:43:16;;;;;;;20.92;8.25;;;;;;;;;;5033693;28;20477;-61
2022/10/19 00:45:43;;;;;;;17.27;8.93;;;;;;;;;;5033556;28;20044;-61
2022/10/19 00:48:10;;;;;;;17.05;8.95;;;;;;;;;;5033882;28;20025;-61
2022/10/19 00:50:36;;;;;;;19.73;9.60;;;;;;;;;;5032925;28;20029;-61
2022/10/19 00:53:03;;;;;;;19.48;8.98;;;;;;;;;;5033108;28;20484;-62
2022/10/19 00:55:29;;;;;;;21.45;9.38;;;;;;;;;;5033420;28;20112;-62
2022/10/19 00:57:55;;;;;;;18.73;9.00;;;;;;;;;;5033557;28;20385;-62
2022/10/19 01:00:21;;;;;;;21.92;8.82;;;;;;;;;;5033410;28;20083;-62
2022/10/19 01:02:48;;;;;;;22.38;8.18;;;;;;;;;;5032584;28;20022;-61
2022/10/19 01:05:14;;;;;;;23.35;8.73;;;;;;;;;;5033294;28;20504;-61
2022/10/19 01:07:40;;;;;;;21.55;8.68;;;;;;;;;;5032437;28;20393;-61
2022/10/19 01:10:07;;;;;;;27.30;9.55;;;;;;;;;;5033230;28;20053;-61
2022/10/19 01:12:36;;;;;;;17.77;8.93;;;;;;;;;;5032766;28;20037;-61
2022/10/19 01:15:05;;;;;;;18.27;9.10;;;;;;;;;;5032996;28;20474;-62
2022/10/19 01:17:49;;;;;;;18.60;8.00;;;;;;;;;;5032833;28;20032;-61
2022/10/19 01:20:34;;;;;;;22.63;9.13;;;;;;;;;;5033049;28;20076;-62
2022/10/19 01:23:03;;;;;;;16.08;7.78;;;;;;;;;;5017852;28;20033;-61
2022/10/19 01:25:42;;;;;;;22.00;9.05;;;;;;;;;;5032995;28;20025;-61
2022/10/19 01:28:26;;;;;;;18.58;8.82;;;;;;;;;;5032868;28;20044;-61
2022/10/19 01:31:04;;;;;;;19.67;8.65;;;;;;;;;;5032488;28;20029;-62
2022/10/19 01:33:40;;;;;;;21.90;9.68;;;;;;;;;;5032661;28;20038;-61
2022/10/19 01:36:12;;;;;;;24.20;9.00;;;;;;;;;;5032657;28;20040;-61
2022/10/19 01:38:55;;;;;;;19.33;9.27;;;;;;;;;;5032252;28;20033;-61
2022/10/19 01:41:21;;;;;;;;;;;;;;;;;;5033075;28;20039;-62
2022/10/19 01:43:47;;;;;;;17.52;8.32;;;;;;;;;;5032876;28;19995;-61
2022/10/19 01:46:17;;;;;;;26.48;9.52;;;;;;;;;;5032760;28;20109;-62
2022/10/19 01:48:48;;;;;;;28.27;9.13;;;;;;;;;;5032901;28;20061;-61
2022/10/19 01:51:18;;;;;;;21.17;9.15;;;;;;;;;;5032238;28;20492;-62
2022/10/19 01:53:49;;;;;;;19.70;9.32;;;;;;;;;;5032651;28;20030;-61
2022/10/19 01:56:17;;;;;;;19.48;9.77;;;;;;;;;;5032744;28;20025;-62
2022/10/19 01:58:44;;;;;;;19.20;8.98;;;;;;;;;;5032687;28;20033;-61
2022/10/19 02:01:11;;;;;;;20.98;8.57;;;;;;;;;;5032907;28;20037;-62
2022/10/19 02:03:37;;;;;;;18.35;9.32;;;;;;;;;;5030816;28;20048;-61
2022/10/19 02:06:05;;;;;;;24.48;9.35;;;;;;;;;;5032377;28;20029;-62
2022/10/19 02:08:38;;;;;;;25.33;8.98;;;;;;;;;;5032403;28;20076;-61
2022/10/19 02:11:04;;;;;;;23.42;8.45;;;;;;;;;;5032428;28;20440;-62
2022/10/19 02:13:31;;;;;;;21.35;8.98;;;;;;;;;;5032821;28;20291;-62
2022/10/19 02:15:59;;;;;;;18.60;8.32;;;;;;;;;;5032515;28;20025;-62
2022/10/19 02:18:28;;;;;;;18.77;8.68;;;;;;;;;;5033305;28;20037;-62
2022/10/19 02:20:54;;;;;;;27.95;9.73;;;;;;;;;;5036063;28;20075;-61
2022/10/19 02:23:21;;;;;;;23.15;10.75;;;;;;;;;;5036705;28;20100;-62
2022/10/19 02:25:47;;;;;;;19.75;8.77;;;;;;;;;;5036517;28;20034;-62
2022/10/19 02:28:14;;;;;;;24.67;9.25;;;;;;;;;;5036392;28;20057;-61
2022/10/19 02:30:41;;;;;;;25.83;8.63;;;;;;;;;;5036482;28;20582;-61
2022/10/19 02:33:07;;;;;;;21.42;9.52;;;;;;;;;;5036707;28;20108;-61
2022/10/19 02:35:33;;;;;;;25.83;10.40;;;;;;;;;;5036117;28;20515;-61
2022/10/19 02:38:01;;;;;;;25.75;9.02;;;;;;;;;;5036181;28;20109;-62
2022/10/19 02:40:29;;;;;;;23.08;9.68;;;;;;;;;;5036005;28;20052;-61
2022/10/19 02:42:59;;;;;;;18.20;8.95;;;;;;;;;;5036220;28;20034;-61
2022/10/19 02:45:29;;;;;;;19.77;8.20;;;;;;;;;;5036363;28;20034;-61
2022/10/19 02:47:57;;;;;;;16.10;8.50;;;;;;;;;;5035107;28;20533;-61
2022/10/19 02:50:24;;;;;;;18.45;8.35;;;;;;;;;;5035910;28;20019;-62
2022/10/19 02:52:50;;;;;;;22.48;8.18;;;;;;;;;;5035706;28;20032;-61
2022/10/19 02:55:16;;;;;;;17.02;8.45;;;;;;;;;;5036178;28;20100;-62
2022/10/19 02:57:42;;;;;;;30.52;10.65;;;;;;;;;;5035660;28;20057;-61
2022/10/19 03:00:08;;;;;;;21.65;9.55;;;;;;;;;;5035453;28;20501;-61
2022/10/19 03:02:35;;;;;;;16.35;9.07;;;;;;;;;;5035194;28;20033;-61
2022/10/19 03:05:01;;;;;;;23.52;8.80;;;;;;;;;;5035462;28;20034;-61
2022/10/19 03:07:27;;;;;;;14.98;7.85;;;;;;;;;;5035794;28;20474;-61
2022/10/19 03:09:53;;;;;;;21.08;8.48;;;;;;;;;;5035039;28;20152;-62
2022/10/19 03:12:19;;;;;;;18.52;8.50;;;;;;;;;;5035636;28;20025;-61
2022/10/19 03:14:45;;;;;;;22.83;9.13;;;;;;;;;;5035695;28;20474;-61
2022/10/19 03:17:12;;;;;;;18.05;8.70;;;;;;;;;;5034971;28;20490;-62
2022/10/19 03:19:38;;;;;;;19.65;9.30;;;;;;;;;;5035745;28;20025;-61
2022/10/19 03:22:04;;;;;;;17.27;8.75;;;;;;;;;;5035296;28;20068;-61
2022/10/19 03:24:31;;;;;;;15.60;8.55;;;;;;;;;;5035508;28;20032;-62
2022/10/19 03:26:57;;;;;;;20.05;8.55;;;;;;;;;;5035250;28;20448;-61
2022/10/19 03:29:23;;;;;;;19.83;8.25;;;;;;;;;;5034889;28;20045;-61
2022/10/19 03:31:49;;;;;;;22.95;8.80;;;;;;;;;;5035011;28;20029;-61
2022/10/19 03:34:15;;;;;;;16.77;8.90;;;;;;;;;;5035389;28;20061;-62
2022/10/19 03:36:42;;;;;;;23.65;8.23;;;;;;;;;;5035012;28;20555;-62
2022/10/19 03:39:11;;;;;;;20.13;8.57;;;;;;;;;;5034589;28;20471;-61
2022/10/19 03:41:38;;;;;;;25.02;8.55;;;;;;;;;;5035043;28;20075;-61
2022/10/19 03:44:04;;;;;;;22.42;8.80;;;;;;;;;;5034553;28;20027;-61
2022/10/19 03:46:31;;;;;;;19.17;7.68;;;;;;;;;;5034673;28;20037;-61
2022/10/19 03:48:57;;;;;;;15.77;8.07;;;;;;;;;;5034662;28;20030;-62
2022/10/19 03:51:24;;;;;;;19.02;9.05;;;;;;;;;;5035076;28;20347;-61
2022/10/19 03:53:54;;;;;;;18.73;9.05;;;;;;;;;;5034694;28;20070;-61
2022/10/19 03:56:21;;;;;;;20.98;8.88;;;;;;;;;;5035055;28;20028;-61
2022/10/19 03:58:48;;;;;;;23.08;8.27;;;;;;;;;;5034493;28;20029;-62
2022/10/19 04:01:16;;;;;;;22.40;8.75;;;;;;;;;;5029456;28;20164;-62
2022/10/19 04:03:42;;;;;;;15.27;8.32;;;;;;;;;;5029863;28;20540;-62
2022/10/19 04:06:10;;;;;;;23.48;8.88;;;;;;;;;;5034004;28;20044;-61
2022/10/19 04:08:36;;;;;;;18.42;8.55;;;;;;;;;;5034516;28;20025;-61
2022/10/19 04:11:04;;;;;;;22.17;9.50;;;;;;;;;;5032342;28;20033;-61
2022/10/19 04:13:30;;;;;;;20.77;8.82;;;;;;;;;;5033632;28;20489;-61
2022/10/19 04:15:56;;;;;;;17.60;8.60;;;;;;;;;;5034117;28;20029;-61
2022/10/19 04:18:23;;;;;;;18.33;9.02;;;;;;;;;;5034472;28;20041;-61
2022/10/19 04:20:49;;;;;;;21.95;9.25;;;;;;;;;;5033290;28;20022;-61
2022/10/19 04:23:15;;;;;;;20.08;9.75;;;;;;;;;;5034238;28;20433;-62
2022/10/19 04:25:41;;;;;;;25.75;8.40;;;;;;;;;;5033162;28;20041;-61
2022/10/19 04:28:07;;;;;;;20.85;9.48;;;;;;;;;;5033671;28;20113;-61
2022/10/19 04:30:33;;;;;;;19.67;9.48;;;;;;;;;;5033920;28;20496;-61
2022/10/19 04:32:59;;;;;;;16.52;9.30;;;;;;;;;;5033926;28;20018;-61
2022/10/19 04:35:25;;;;;;;24.05;9.57;;;;;;;;;;5034108;28;20036;-61
2022/10/19 04:37:51;;;;;;;21.23;9.88;;;;;;;;;;5033968;28;20147;-61
2022/10/19 04:40:17;;;;;;;17.00;9.45;;;;;;;;;;5033812;28;20414;-62
2022/10/19 04:42:43;;;;;;;21.38;9.55;;;;;;;;;;5031924;28;20029;-62
2022/10/19 04:45:10;;;;;;;21.75;10.02;;;;;;;;;;5030186;28;20021;-61
2022/10/19 04:47:36;;;;;;;21.98;10.68;;;;;;;;;;5032981;28;20600;-61
2022/10/19 04:50:02;;;;;;;19.92;9.60;;;;;;;;;;5016163;28;20116;-61
2022/10/19 04:52:28;;;;;;;13.68;9.48;;;;;;;;;;5029680;28;20111;-61
2022/10/19 04:54:54;;;;;;;24.83;10.43;;;;;;;;;;5028597;28;20396;-61
2022/10/19 04:57:20;;;;;;;17.35;10.13;;;;;;;;;;5032516;28;20026;-61
2022/10/19 04:59:47;;;;;;;24.05;10.48;;;;;;;;;;5033573;28;20037;-61
2022/10/19 05:02:13;;;;;;;19.13;9.68;;;;;;;;;;5023055;28;20391;-61
2022/10/19 05:04:39;;;;;;;18.77;9.88;;;;;;;;;;5019917;28;20147;-61
2022/10/19 05:07:05;;;;;;;25.75;10.45;;;;;;;;;;5026439;28;20390;-61
2022/10/19 05:09:31;;;;;;;17.80;9.73;;;;;;;;;;5026433;28;20033;-61
2022/10/19 05:11:57;;;;;;;24.80;9.98;;;;;;;;;;5029865;28;20038;-61
2022/10/19 05:14:23;;;;;;;26.27;10.40;;;;;;;;;;5032905;28;20108;-61
2022/10/19 05:16:50;;;;;;;27.08;10.90;;;;;;;;;;5031071;28;20025;-61
2022/10/19 05:19:16;;;;;;;17.58;10.00;;;;;;;;;;5028745;28;20028;-61
2022/10/19 05:21:42;;;;;;;22.98;10.13;;;;;;;;;;5029266;28;20021;-62
2022/10/19 05:24:11;;;;;;;19.83;9.75;;;;;;;;;;5031300;28;20539;-62
2022/10/19 05:26:37;;;;;;;21.98;10.73;;;;;;;;;;5032463;28;20033;-62
2022/10/19 05:29:03;;;;;;;19.38;10.68;;;;;;;;;;5032531;28;20030;-62
2022/10/19 05:31:33;;;;;;;22.90;10.13;;;;;;;;;;5033208;28;20049;-62
2022/10/19 05:34:00;;;;;;;30.42;11.45;;;;;;;;;;5031527;28;20099;-70
2022/10/19 05:36:27;;;;;;;27.25;11.27;;;;;;;;;;5031320;28;20152;-62
2022/10/19 05:38:54;;;;;;;17.33;10.38;;;;;;;;;;5030776;28;20040;-64
2022/10/19 05:41:22;;;;;;;20.05;10.02;;;;;;;;;;5028275;28;20025;-61
2022/10/19 05:43:51;;;;;;;26.30;10.30;;;;;;;;;;5030277;28;20040;-62
2022/10/19 05:46:18;;;;;;;29.95;11.98;;;;;;;;;;5028796;28;20048;-61
2022/10/19 05:48:44;;;;;;;26.20;12.30;;;;;;;;;;5030829;28;20390;-62
2022/10/19 05:51:11;;;;;;;23.40;12.40;;;;;;;;;;5031759;28;20057;-62
2022/10/19 05:53:37;;;;;;;20.00;11.13;;;;;;;;;;5032495;28;20014;-62
2022/10/19 05:56:04;;;;;;;26.70;12.20;;;;;;;;;;5032037;28;20107;-62
2022/10/19 05:58:31;;;;;;;21.65;11.85;;;;;;;;;;5030371;28;20028;-62
2022/10/19 06:00:58;;;;;;;26.67;11.40;;;;;;;;;;5031320;28;20372;-62
2022/10/19 06:03:24;;;;;;;29.15;12.13;;;;;;;;;;5032686;28;20079;-62
2022/10/19 06:05:51;;;;;;;30.02;12.27;;;;;;;;;;5031167;28;20493;-62
2022/10/19 06:08:17;;;;;;;32.03;11.98;;;;;;;;;;5025738;28;20379;-62
2022/10/19 06:10:44;;;;;;;28.65;11.77;;;;;;;;;;5024059;28;20045;-61
2022/10/19 06:13:10;;;;;;;26.77;13.25;;;;;;;;;;5027373;28;20999;-61
2022/10/19 06:15:38;;;;;;;23.55;12.15;;;;;;;;;;5030495;28;20029;-61
2022/10/19 06:18:06;;;;;;;21.70;11.85;;;;;;;;;;5030258;28;20034;-61
2022/10/19 06:20:33;;;;;;;25.17;12.23;;;;;;;;;;5030575;28;20673;-61
2022/10/19 06:22:59;;;;;;;24.08;13.40;;;;;;;;;;5028548;28;20025;-62
2022/10/19 06:25:25;;;;;;;23.08;13.18;;;;;;;;;;5030668;28;20025;-61
2022/10/19 06:27:52;;;;;;;33.53;13.40;;;;;;;;;;5031101;28;20032;-62
2022/10/19 06:30:18;;;;;;;27.25;12.48;;;;;;;;;;5028254;28;20028;-61
2022/10/19 06:32:44;;;;;;;26.17;12.43;;;;;;;;;;5030737;28;20017;-62
2022/10/19 06:35:10;;;;;;;30.13;12.73;;;;;;;;;;5030926;28;20104;-62
2022/10/19 06:37:36;;;;;;;26.65;11.23;;;;;;;;;;5031248;28;20143;-61
2022/10/19 06:40:02;;;;;;;29.58;11.82;;;;;;;;;;5030230;28;20048;-62
2022/10/19 06:42:28;;;;;;;21.98;12.15;;;;;;;;;;5030812;28;20114;-62
2022/10/19 06:44:55;;;;;;;31.05;13.05;;;;;;;;;;5030829;28;20021;-61
2022/10/19 06:47:21;;;;;;;29.17;12.88;;;;;;;;;;5030104;28;20423;-61
2022/10/19 06:49:47;;;;;;;27.02;12.00;;;;;;;;;;5031519;28;20033;-61
2022/10/19 06:52:13;;;;;;;27.80;12.07;;;;;;;;;;5031582;28;20040;-61
2022/10/19 06:54:39;;;;;;;27.92;11.45;;;;;;;;;;5030517;28;20555;-61
2022/10/19 06:57:06;;;;;;;23.90;12.10;;;;;;;;;;5031550;28;20343;-61
2022/10/19 06:59:32;;;;;;;28.25;12.40;;;;;;;;;;5031467;28;20034;-61
2022/10/19 07:01:59;;;;;;;25.83;12.07;;;;;;;;;;5030368;28;20040;-62
2022/10/19 07:04:25;;;;;;;24.42;12.13;;;;;;;;;;5029898;28;20033;-62
2022/10/19 07:06:51;;;;;;;29.10;13.38;;;;;;;;;;5031293;28;20036;-62
2022/10/19 07:09:18;;;;;;;24.63;12.20;;;;;;;;;;5033283;28;20469;-62
2022/10/19 07:11:44;;;;;;;26.20;12.40;;;;;;;;;;5034484;28;20033;-62
2022/10/19 07:14:10;;;;;;;29.50;14.25;;;;;;;;;;5034831;28;20389;-61
2022/10/19 07:16:36;;;;;;;27.10;12.70;;;;;;;;;;5034354;28;20064;-61
2022/10/19 07:19:03;;;;;;;25.70;12.63;;;;;;;;;;5034396;28;20500;-62
2022/10/19 07:21:29;;;;;;;33.03;13.88;;;;;;;;;;5032815;28;20022;-62
2022/10/19 07:23:55;;;;;;;23.58;12.05;;;;;;;;;;5032531;28;20037;-61
2022/10/19 07:26:25;;;;;;;27.90;12.30;;;;;;;;;;5034537;28;20033;-62
2022/10/19 07:28:51;;;;;;;33.55;13.77;;;;;;;;;;5030161;28;20025;-61
2022/10/19 07:31:19;;;;;;;30.52;13.23;;;;;;;;;;5033777;28;20167;-61
2022/10/19 07:33:45;;;;;;;24.58;13.40;;;;;;;;;;5031901;28;20492;-62
2022/10/19 07:36:12;;;;;;;30.33;12.90;;;;;;;;;;5036083;28;20028;-61
2022/10/19 07:38:39;;;;;;;29.92;13.52;;;;;;;;;;5031213;28;20035;-61
2022/10/19 07:41:11;;;;;;;31.60;14.20;;;;;;;;;;5032517;28;20037;-61
2022/10/19 07:43:38;;;;;;;32.50;14.57;;;;;;;;;;5031078;28;20049;-61
2022/10/19 07:46:05;;;;;;;34.47;13.15;;;;;;;;;;5036845;28;20029;-61
2022/10/19 07:48:31;;;;;;;31.98;13.20;;;;;;;;;;5033570;28;20436;-61
2022/10/19 07:50:58;;;;;;;32.05;14.75;;;;;;;;;;5037894;28;20072;-61
2022/10/19 07:53:24;;;;;;;29.98;13.75;;;;;;;;;;5030188;28;20048;-61
2022/10/19 07:55:50;;;;;;;26.45;13.30;;;;;;;;;;5036586;28;20026;-61
2022/10/19 07:58:16;;;;;;;26.23;12.98;;;;;;;;;;5037689;28;20040;-62
2022/10/19 08:00:42;;;;;;;28.05;13.32;;;;;;;;;;5034732;28;20445;-61
2022/10/19 08:03:08;;;;;;;32.67;13.50;;;;;;;;;;5037255;28;20053;-61
2022/10/19 08:05:35;;;;;;;27.35;14.40;;;;;;;;;;5034458;28;20375;-61
2022/10/19 08:08:01;;;;;;;32.17;13.95;;;;;;;;;;5030033;28;20033;-61
2022/10/19 08:10:27;;;;;;;26.38;14.00;;;;;;;;;;5035353;28;20108;-62
2022/10/19 08:12:53;;;;;;;28.13;12.60;;;;;;;;;;5033447;28;20571;-61
2022/10/19 08:15:19;;;;;;;30.42;14.02;;;;;;;;;;5033236;28;20033;-61
2022/10/19 08:17:45;;;;;;;25.88;14.05;;;;;;;;;;5031793;28;20033;-62
2022/10/19 08:20:11;;;;;;;28.05;14.40;;;;;;;;;;5036218;28;20029;-61
2022/10/19 08:22:38;;;;;;;30.90;13.52;;;;;;;;;;5042268;28;20487;-61
2022/10/19 08:25:04;;;;;;;29.48;13.57;;;;;;;;;;5037718;28;20430;-61
2022/10/19 08:27:30;;;;;;;25.95;13.00;;;;;;;;;;5037290;28;20041;-61
2022/10/19 08:29:56;;;;;;;26.67;13.25;;;;;;;;;;5030861;28;20036;-61
2022/10/19 08:32:23;;;;;;;31.77;13.55;;;;;;;;;;5031912;28;20076;-61
2022/10/19 08:34:49;;;;;;;24.35;13.13;;;;;;;;;;5030129;28;20062;-62
2022/10/19 08:37:15;;;;;;;28.33;13.20;;;;;;;;;;5033391;28;20033;-61
2022/10/19 08:39:41;;;;;;;29.20;13.98;;;;;;;;;;5039348;28;20044;-62
2022/10/19 08:42:30;;;;;;;28.75;13.38;;;;;;;;;;5037838;28;20025;-61
2022/10/19 08:45:19;;;;;;;34.83;13.35;;;;;;;;;;5035470;28;20029;-62
2022/10/19 08:47:48;;;;;;;33.88;12.95;;;;;;;;;;5027687;28;20057;-61
2022/10/19 08:50:19;;;;;;;25.35;13.15;;;;;;;;;;5034139;28;20485;-62
2022/10/19 08:52:49;;;;;;;24.02;12.88;;;;;;;;;;5030061;28;20053;-62
2022/10/19 08:55:16;;;;;;;27.33;13.40;;;;;;;;;;5030576;28;20053;-61
2022/10/19 08:57:57;;;;;;;28.90;13.50;;;;;;;;;;5032895;28;20029;-61
2022/10/19 09:00:34;;;;;;;31.80;14.27;;;;;;;;;;5028433;28;20075;-61
2022/10/19 09:03:18;;;;;;;27.98;12.48;;;;;;;;;;5027664;28;20429;-61
2022/10/19 09:05:53;;;;;;;31.45;12.38;;;;;;;;;;5030105;28;20460;-61
2022/10/19 09:08:19;;;;;;;20.23;11.50;;;;;;;;;;5022812;28;20041;-61
2022/10/19 09:10:46;;;;;;;23.83;11.82;;;;;;;;;;5025453;28;20168;-61
2022/10/19 09:13:31;;;;;;;23.27;11.27;;;;;;;;;;5027948;28;20171;-61
2022/10/19 09:15:57;;;;;;;19.98;10.63;;;;;;;;;;5029256;28;20039;-61
2022/10/19 09:18:26;;;;;;;28.90;11.50;;;;;;;;;;5024460;28;20465;-61
2022/10/19 09:20:57;;;;;;;23.08;11.77;;;;;;;;;;5028966;28;20042;-61
2022/10/19 09:23:34;;;;;;;26.60;10.15;;;;;;;;;;5035074;28;20034;-62
2022/10/19 09:26:01;;;;;;;26.58;11.25;;;;;;;;;;5030853;28;20116;-61
2022/10/19 09:28:37;;;;;;;24.92;9.73;;;;;;;;;;5032845;28;20033;-62
2022/10/19 09:31:04;;;;;;;16.55;9.15;;;;;;;;;;5030067;28;20076;-61
2022/10/19 09:33:33;;;;;;;23.98;9.43;;;;;;;;;;5034189;28;20474;-61
2022/10/19 09:36:00;;;;;;;21.80;10.98;;;;;;;;;;5030762;28;20030;-61
2022/10/19 09:38:27;;;;;;;24.75;9.38;;;;;;;;;;5030310;28;20120;-61
2022/10/19 09:40:53;;;;;;;20.60;10.02;;;;;;;;;;5032471;28;20083;-61
2022/10/19 09:43:20;;;;;;;24.50;9.93;;;;;;;;;;5030411;28;20041;-61
2022/10/19 09:46:04;;;;;;;19.75;9.35;;;;;;;;;;5029443;28;20036;-61
2022/10/19 09:48:30;;;;;;;23.73;9.55;;;;;;;;;;5026704;28;20079;-61
2022/10/19 09:51:00;;;;;;;21.75;9.20;;;;;;;;;;5019475;28;20021;-61
2022/10/19 09:53:27;;;;;;;27.45;10.48;;;;;;;;;;5031879;28;20056;-61
2022/10/19 09:56:03;;;;;;;21.77;9.15;;;;;;;;;;5030706;28;20052;-61
2022/10/19 09:58:29;;;;;;;19.52;8.98;;;;;;;;;;5031937;28;20060;-61
2022/10/19 10:00:56;;;;;;;19.70;9.07;;;;;;;;;;5030526;28;20021;-61
2022/10/19 10:03:23;;;;;;;21.42;9.70;;;;;;;;;;5028096;28;20080;-61
2022/10/19 10:05:49;;;;;;;17.08;8.77;;;;;;;;;;5027178;28;20029;-62
2022/10/19 10:08:17;;;;;;;22.20;9.90;;;;;;;;;;5031175;28;20033;-61
2022/10/19 10:10:48;;;;;;;23.40;8.43;;;;;;;;;;5036036;28;20052;-61
2022/10/19 10:13:19;;;;;;;21.25;8.35;;;;;;;;;;5031111;28;20026;-62
2022/10/19 10:15:51;;;;;;;14.55;8.05;;;;;;;;;;5028675;28;20034;-61
2022/10/19 10:18:18;;;;;;;16.93;7.40;;;;;;;;;;5022801;28;20021;-61
2022/10/19 10:21:04;;;;;;;15.95;7.55;;;;;;;;;;5037809;28;20769;-61
2022/10/19 10:23:35;;;;;;;24.10;8.15;;;;;;;;;;5025372;28;20424;-62
2022/10/19 10:26:02;;;;;;;17.02;7.43;;;;;;;;;;5028777;28;20021;-62
2022/10/19 10:28:28;;;;;;;20.17;7.95;;;;;;;;;;5028552;28;20030;-62
2022/10/19 10:31:15;;;;;;;19.35;8.38;;;;;;;;;;5028665;28;20369;-62
2022/10/19 10:33:41;;;;;;;13.15;7.53;;;;;;;;;;5020128;28;20021;-61
2022/10/19 10:36:08;;;;;;;22.55;8.43;;;;;;;;;;5025885;28;20112;-62
2022/10/19 10:38:43;;;;;;;24.70;7.85;;;;;;;;;;5027000;28;20076;-62
2022/10/19 10:41:14;;;;;;;17.45;6.70;;;;;;;;;;5030588;28;20424;-63
2022/10/19 10:43:52;;;;;;;22.00;6.78;;;;;;;;;;5030344;28;20025;-62
2022/10/19 10:46:20;;;;;;;17.98;7.05;;;;;;;;;;5032756;28;20556;-62
2022/10/19 10:49:01;;;;;;;20.00;6.97;;;;;;;;;;5033787;28;20037;-62
2022/10/19 10:51:36;;;;;;;19.48;6.53;;;;;;;;;;5035777;28;20033;-62
2022/10/19 10:54:17;;;;;;;19.00;7.28;;;;;;;;;;5034924;28;20043;-62
2022/10/19 10:56:54;;;;;;;17.25;6.18;;;;;;;;;;5026319;28;20436;-62
2022/10/19 10:59:26;;;;;;;25.15;7.40;;;;;;;;;;5032471;28;20037;-62
2022/10/19 11:01:55;;;;;;;19.50;6.95;;;;;;;;;;5034318;28;20499;-62
2022/10/19 11:04:28;;;;;;;20.67;6.70;;;;;;;;;;5031891;28;20155;-62
2022/10/19 11:06:57;;;;;;;21.98;6.75;;;;;;;;;;5032429;28;20037;-62
2022/10/19 11:09:33;;;;;;;21.70;6.60;;;;;;;;;;5034894;28;20084;-62
2022/10/19 11:12:02;;;;;;;20.75;6.78;;;;;;;;;;5031299;28;20592;-62
2022/10/19 11:14:48;;;;;;;18.23;7.05;;;;;;;;;;5034705;28;20104;-62
2022/10/19 11:17:20;;;;;;;17.42;6.88;;;;;;;;;;5035088;28;20377;-62
2022/10/19 11:19:49;;;;;;;15.87;6.17;;;;;;;;;;5034103;28;20049;-61
2022/10/19 11:22:21;;;;;;;15.75;5.45;;;;;;;;;;5038252;28;20534;-62
2022/10/19 11:25:04;;;;;;;15.05;5.65;;;;;;;;;;5033996;28;20029;-62
2022/10/19 11:27:42;;;;;;;19.02;6.22;;;;;;;;;;5029735;28;20037;-61
2022/10/19 11:30:09;;;;;;;18.85;6.50;;;;;;;;;;5023192;28;20121;-63
2022/10/19 11:32:41;;;;;;;21.45;5.95;;;;;;;;;;5027976;28;20025;-62
2022/10/19 11:35:07;;;;;;;20.25;5.80;;;;;;;;;;5026210;28;20037;-62
2022/10/19 11:37:38;;;;;;;20.80;6.20;;;;;;;;;;5026301;28;20029;-62
2022/10/19 11:40:27;;;;;;;18.10;6.20;;;;;;;;;;5029066;28;20028;-62
2022/10/19 11:42:56;;;;;;;15.27;5.85;;;;;;;;;;5028512;28;20033;-61
2022/10/19 11:45:47;;;;;;;16.10;6.20;;;;;;;;;;5028192;28;20504;-62
2022/10/19 11:48:19;;;;;;;18.05;6.28;;;;;;;;;;5022446;28;20375;-61
2022/10/19 11:50:53;;;;;;;22.00;7.70;;;;;;;;;;5029656;28;20166;-61
2022/10/19 11:53:31;;;;;;;22.52;6.53;;;;;;;;;;5025984;28;20409;-62
2022/10/19 11:56:07;;;;;;;18.00;6.05;;;;;;;;;;5023960;28;20383;-62
2022/10/19 11:58:42;;;;;;;16.63;6.15;;;;;;;;;;5021932;28;20034;-62
2022/10/19 12:01:11;;;;;;;24.00;6.03;;;;;;;;;;5029973;28;20652;-62
2022/10/19 12:03:53;;;;;;;25.92;6.35;;;;;;;;;;5034435;28;20041;-62
2022/10/19 12:06:22;;;;;;;16.88;5.45;;;;;;;;;;5028991;28;20032;-62
2022/10/19 12:09:00;;;;;;;19.30;6.65;;;;;;;;;;5032401;28;20028;-62
2022/10/19 12:11:27;;;;;;;23.58;6.13;;;;;;;;;;5025791;28;20470;-62
2022/10/19 12:13:59;;;;;;;18.13;5.75;;;;;;;;;;5031192;28;20378;-62
2022/10/19 12:16:30;;;;;;;19.23;6.18;;;;;;;;;;5035087;28;20029;-62
2022/10/19 12:18:59;;;;;;;21.90;6.85;;;;;;;;;;5032112;28;20063;-62
2022/10/19 12:21:30;;;;;;;24.23;6.22;;;;;;;;;;5032123;28;20057;-62
2022/10/19 12:23:58;;;;;;;29.13;6.00;;;;;;;;;;5029586;28;20908;-62
2022/10/19 12:26:24;;;;;;;16.58;5.65;;;;;;;;;;5030438;28;20100;-63
2022/10/19 12:28:53;;;;;;;18.58;6.88;;;;;;;;;;5031620;28;20029;-62
2022/10/19 12:31:20;;;;;;;17.45;5.40;;;;;;;;;;5031248;28;20075;-62
2022/10/19 12:34:09;;;;;;;19.67;6.35;;;;;;;;;;5029635;28;20053;-62
2022/10/19 12:36:47;;;;;;;22.73;6.00;;;;;;;;;;5027459;28;20033;-62
2022/10/19 12:39:32;;;;;;;16.45;6.63;;;;;;;;;;5026222;28;20055;-62
2022/10/19 12:42:21;;;;;;;21.65;6.68;;;;;;;;;;5027613;28;20056;-62
2022/10/19 12:45:05;;;;;;;19.17;5.95;;;;;;;;;;5027945;28;20041;-62
2022/10/19 12:47:32;;;;;;;23.08;6.20;;;;;;;;;;5029717;28;20091;-62
2022/10/19 12:49:58;;;;;;;17.38;5.78;;;;;;;;;;5028415;28;20046;-62
2022/10/19 12:52:37;;;;;;;22.75;6.78;;;;;;;;;;5028413;28;20035;-62
2022/10/19 12:55:14;;;;;;;19.05;6.38;;;;;;;;;;5029410;28;20733;-62
2022/10/19 12:57:45;;;;;;;20.88;6.75;;;;;;;;;;5025752;28;20061;-62
2022/10/19 13:00:31;;;;;;;20.85;6.60;;;;;;;;;;5027896;28;20049;-62
2022/10/19 13:03:00;;;;;;;21.77;5.97;;;;;;;;;;5028538;28;20033;-62
2022/10/19 13:05:28;;;;;;;15.20;6.25;;;;;;;;;;5027031;28;20029;-62
2022/10/19 13:07:54;;;;;;;20.60;5.70;;;;;;;;;;5028524;28;20092;-62
2022/10/19 13:10:25;;;;;;;23.60;5.95;;;;;;;;;;5027899;28;20045;-62
2022/10/19 13:12:51;;;;;;;21.00;5.35;;;;;;;;;;5023709;28;20049;-62
2022/10/19 13:15:35;;;;;;;20.27;5.55;;;;;;;;;;5025568;28;20031;-62
2022/10/19 13:18:02;;;;;;;20.27;6.95;;;;;;;;;;5027908;28;20034;-62
2022/10/19 13:20:28;;;;;;;19.30;5.97;;;;;;;;;;5030258;28;20571;-62
2022/10/19 13:23:03;;;;;;;26.35;6.40;;;;;;;;;;5030168;28;20037;-62
2022/10/19 13:25:33;;;;;;;26.10;6.07;;;;;;;;;;5029870;28;20048;-62
2022/10/19 13:28:08;;;;;;;25.17;7.25;;;;;;;;;;5030007;28;20029;-62
2022/10/19 13:30:38;;;;;;;22.95;6.03;;;;;;;;;;5031013;28;20112;-62
2022/10/19 13:33:27;;;;;;;15.68;5.40;;;;;;;;;;5028026;28;20025;-62
2022/10/19 13:35:59;;;;;;;22.27;6.45;;;;;;;;;;5030393;28;20501;-62
2022/10/19 13:38:28;;;;;;;21.38;5.80;;;;;;;;;;5021557;28;20037;-62
2022/10/19 13:40:54;;;;;;;29.80;6.15;;;;;;;;;;5022409;28;20512;-61
2022/10/19 13:43:25;;;;;;;23.92;7.03;;;;;;;;;;5025134;28;20109;-62
2022/10/19 13:45:54;;;;;;;13.45;6.28;;;;;;;;;;5029843;28;20025;-62
2022/10/19 13:48:33;;;;;;;19.17;6.25;;;;;;;;;;5029542;28;20034;-62
2022/10/19 13:51:06;;;;;;;21.20;6.97;;;;;;;;;;5028278;28;20025;-62
2022/10/19 13:53:32;;;;;;;;;;;;;;;;;;5030681;28;20035;-62
2022/10/19 13:56:07;;;;;;;18.48;5.82;;;;;;;;;;5029463;28;20000;-62
2022/10/19 13:58:41;;;;;;;32.60;6.95;;;;;;;;;;5030161;28;20033;-62
2022/10/19 14:01:07;;;;;;;28.15;6.75;;;;;;;;;;5027688;28;20037;-62
2022/10/19 14:03:48;;;;;;;25.55;7.35;;;;;;;;;;5029289;28;20021;-62
2022/10/19 14:06:38;;;;;;;32.08;7.40;;;;;;;;;;5019816;28;20025;-62
2022/10/19 14:09:23;;;;;;;21.63;6.75;;;;;;;;;;5024908;28;20037;-62
2022/10/19 14:11:53;;;;;;;18.77;6.15;;;;;;;;;;5026521;28;20449;-62
2022/10/19 14:14:23;;;;;;;22.92;6.68;;;;;;;;;;5028330;28;20101;-62
2022/10/19 14:16:52;;;;;;;22.13;6.78;;;;;;;;;;5034440;28;20021;-62
2022/10/19 14:19:27;;;;;;;24.23;6.40;;;;;;;;;;5029401;28;20091;-62
2022/10/19 14:21:56;;;;;;;22.98;6.30;;;;;;;;;;5027261;28;20033;-62
2022/10/19 14:24:35;;;;;;;24.92;6.70;;;;;;;;;;5031676;28;20551;-62
2022/10/19 14:27:03;;;;;;;18.00;6.38;;;;;;;;;;5032319;28;20453;-62
2022/10/19 14:29:30;;;;;;;24.73;7.65;;;;;;;;;;5032726;28;20033;-62
2022/10/19 14:31:58;;;;;;;21.17;6.40;;;;;;;;;;5031657;28;20036;-62
2022/10/19 14:34:24;;;;;;;23.63;7.43;;;;;;;;;;5032663;28;20117;-62
2022/10/19 14:36:50;;;;;;;23.85;6.95;;;;;;;;;;5032628;28;20509;-62
2022/10/19 14:39:25;;;;;;;26.15;6.90;;;;;;;;;;5032298;28;20029;-62